createdAt,value
2019-02-24T00:01:32.740Z,48.14
2019-02-24T00:04:01.103Z,49.00
2019-02-24T00:06:29.428Z,48.73
2019-02-24T00:08:57.819Z,49.03
2019-02-24T00:11:26.131Z,49.62
2019-02-24T00:13:54.477Z,49.73
2019-02-24T00:16:23.455Z,49.97
2019-02-24T00:18:51.783Z,50.38
2019-02-24T00:21:20.126Z,50.64
2019-02-24T00:23:48.467Z,49.97
2019-02-24T00:26:16.880Z,50.53
2019-02-24T00:28:45.174Z,50.39
2019-02-24T00:31:13.706Z,50.35
2019-02-24T00:33:42.103Z,50.24
2019-02-24T00:36:11.035Z,49.21
2019-02-24T00:38:39.341Z,49.45
2019-02-24T00:41:07.702Z,49.16
2019-02-24T00:43:36.059Z,48.41
2019-02-24T00:46:04.484Z,48.43
2019-02-24T00:48:32.813Z,48.14
2019-02-24T00:51:01.159Z,48.74
2019-02-24T00:53:29.507Z,49.70
2019-02-24T00:55:57.860Z,49.76
2019-02-24T00:58:26.196Z,50.55
2019-02-24T01:00:54.553Z,49.64
2019-02-24T01:03:22.896Z,49.84
2019-02-24T01:05:51.242Z,50.28
2019-02-24T01:08:19.589Z,50.89
2019-02-24T01:10:47.928Z,51.38
2019-02-24T01:13:16.646Z,51.53
2019-02-24T01:15:45.005Z,51.84
2019-02-24T01:18:13.360Z,51.54
2019-02-24T01:20:41.715Z,52.22
2019-02-24T01:23:10.420Z,51.79
2019-02-24T01:25:38.841Z,51.35
2019-02-24T01:28:07.290Z,51.11
2019-02-24T01:30:35.767Z,51.47
2019-02-24T01:33:04.216Z,51.10
2019-02-24T01:35:32.551Z,50.84
2019-02-24T01:38:00.906Z,49.91
2019-02-24T01:40:29.243Z,48.76
2019-02-24T01:42:57.599Z,48.79
2019-02-24T01:45:25.974Z,49.80
2019-02-24T01:47:54.303Z,50.15
2019-02-24T01:50:22.798Z,50.80
2019-02-24T01:52:51.163Z,50.92
2019-02-24T01:55:19.525Z,51.59
2019-02-24T01:57:47.871Z,51.90
2019-02-24T02:00:16.699Z,53.14
2019-02-24T02:02:45.062Z,52.68
2019-02-24T02:05:14.026Z,51.84
2019-02-24T02:07:42.379Z,51.02
2019-02-24T02:10:11.408Z,52.21
2019-02-24T02:12:39.778Z,51.82
2019-02-24T02:15:08.543Z,51.36
2019-02-24T02:17:36.913Z,51.55
2019-02-24T02:20:07.879Z,51.57
2019-02-24T02:22:36.245Z,52.64
2019-02-24T02:25:06.006Z,53.09
2019-02-24T02:27:34.507Z,52.72
2019-02-24T02:30:02.905Z,53.28
2019-02-24T02:32:31.284Z,53.40
2019-02-24T02:34:59.629Z,52.03
2019-02-24T02:37:28.004Z,51.74
2019-02-24T02:39:56.602Z,51.07
2019-02-24T02:42:24.966Z,51.73
2019-02-24T02:44:53.290Z,51.58
2019-02-24T02:47:21.602Z,51.56
2019-02-24T02:49:50.005Z,51.14
2019-02-24T02:52:18.326Z,51.50
2019-02-24T02:54:46.692Z,52.70
2019-02-24T02:57:15.044Z,52.88
2019-02-24T02:59:43.420Z,52.73
2019-02-24T03:02:12.212Z,52.51
2019-02-24T03:04:40.545Z,52.31
2019-02-24T03:07:12.864Z,52.02
2019-02-24T03:09:41.236Z,51.65
2019-02-24T03:12:09.682Z,51.07
2019-02-24T03:14:38.023Z,51.09
2019-02-24T03:17:06.428Z,51.69
2019-02-24T03:19:34.803Z,51.46
2019-02-24T03:22:03.159Z,52.69
2019-02-24T03:24:31.513Z,52.96
2019-02-24T03:26:59.830Z,53.17
2019-02-24T03:29:28.220Z,52.77
2019-02-24T03:31:56.585Z,52.27
2019-02-24T03:34:24.951Z,52.18
2019-02-24T03:36:53.302Z,52.55
2019-02-24T03:39:21.772Z,52.59
2019-02-24T03:41:50.353Z,52.65
2019-02-24T03:44:18.721Z,52.70
2019-02-24T03:46:47.045Z,53.03
2019-02-24T03:49:15.402Z,52.94
2019-02-24T03:51:43.729Z,52.57
2019-02-24T03:54:12.620Z,52.89
2019-02-24T03:56:41.023Z,51.89
2019-02-24T03:59:15.120Z,52.33
2019-02-24T04:01:40.452Z,52.63
2019-02-24T04:04:08.857Z,53.01
2019-02-24T04:06:37.201Z,52.72
2019-02-24T04:09:05.730Z,52.61
2019-02-24T04:11:34.101Z,50.70
2019-02-24T04:14:02.509Z,49.58
2019-02-24T04:16:30.868Z,49.49
2019-02-24T04:18:59.281Z,49.71
2019-02-24T04:21:27.585Z,49.20
2019-02-24T04:23:55.926Z,49.66
2019-02-24T04:26:24.267Z,49.15
2019-02-24T04:28:52.590Z,49.74
2019-02-24T04:31:20.932Z,49.26
2019-02-24T04:33:49.256Z,49.84
2019-02-24T04:36:17.616Z,49.20
2019-02-24T04:38:45.992Z,48.87
2019-02-24T04:41:14.522Z,49.54
2019-02-24T04:43:42.886Z,49.75
2019-02-24T04:46:11.833Z,50.16
2019-02-24T04:48:40.144Z,50.82
2019-02-24T04:51:08.498Z,51.43
2019-02-24T04:53:36.836Z,50.87
2019-02-24T04:56:05.176Z,50.66
2019-02-24T04:58:33.548Z,50.58
2019-02-24T05:01:01.916Z,50.50
2019-02-24T05:03:30.428Z,49.36
2019-02-24T05:05:58.742Z,49.51
2019-02-24T05:08:27.114Z,50.25
2019-02-24T05:10:55.437Z,50.17
2019-02-24T05:13:23.795Z,49.23
2019-02-24T05:15:52.118Z,48.96
2019-02-24T05:18:20.519Z,48.83
2019-02-24T05:20:48.872Z,49.34
2019-02-24T05:23:17.250Z,49.65
2019-02-24T05:25:45.608Z,49.18
2019-02-24T05:28:13.952Z,49.25
2019-02-24T05:30:42.268Z,48.68
2019-02-24T05:33:12.404Z,48.75
2019-02-24T05:35:40.737Z,47.82
2019-02-24T05:38:09.075Z,46.88
2019-02-24T05:40:37.431Z,45.91
2019-02-24T05:43:05.761Z,45.58
2019-02-24T05:45:34.097Z,45.60
2019-02-24T05:48:02.431Z,45.67
2019-02-24T05:50:30.843Z,46.30
2019-02-24T05:52:59.179Z,46.43
2019-02-24T05:55:27.624Z,47.72
2019-02-24T05:57:55.914Z,49.06
2019-02-24T06:00:24.282Z,49.25
2019-02-24T06:02:52.622Z,49.67
2019-02-24T06:05:20.980Z,49.69
2019-02-24T06:07:49.309Z,49.79
2019-02-24T06:10:17.720Z,49.65
2019-02-24T06:12:46.085Z,49.13
2019-02-24T06:15:14.449Z,50.00
2019-02-24T06:17:42.772Z,49.70
2019-02-24T06:20:11.755Z,49.87
2019-02-24T06:22:40.109Z,49.43
2019-02-24T06:25:09.569Z,49.46
2019-02-24T06:27:37.901Z,49.65
2019-02-24T06:30:08.549Z,49.43
2019-02-24T06:32:36.844Z,48.14
2019-02-24T06:35:07.342Z,47.86
2019-02-24T06:37:35.643Z,46.17
2019-02-24T06:40:04.870Z,45.33
2019-02-24T06:42:33.189Z,42.47
2019-02-24T06:45:01.541Z,41.89
2019-02-24T06:47:29.865Z,41.62
2019-02-24T06:49:58.223Z,41.45
2019-02-24T06:52:28.100Z,40.84
2019-02-24T06:54:56.599Z,40.10
2019-02-24T06:57:24.952Z,37.89
2019-02-24T06:59:53.568Z,37.68
2019-02-24T07:02:21.995Z,35.20
2019-02-24T07:04:50.358Z,35.64
2019-02-24T07:07:18.716Z,34.24
2019-02-24T07:09:47.048Z,35.47
2019-02-24T07:12:15.386Z,35.66
2019-02-24T07:14:43.804Z,33.13
2019-02-24T07:17:12.183Z,31.53
2019-02-24T07:19:40.516Z,31.29
2019-02-24T07:22:09.128Z,30.87
2019-02-24T07:24:37.458Z,30.69
2019-02-24T07:27:05.967Z,31.81
2019-02-24T07:29:34.383Z,30.16
2019-02-24T07:32:09.200Z,31.77
2019-02-24T07:34:39.021Z,31.42
2019-02-24T07:37:12.981Z,31.56
2019-02-24T07:39:38.509Z,33.66
2019-02-24T07:42:07.514Z,34.11
2019-02-24T07:44:35.857Z,34.12
2019-02-24T07:47:04.549Z,33.55
2019-02-24T07:49:33.270Z,33.27
2019-02-24T07:52:01.692Z,35.07
2019-02-24T07:54:30.272Z,34.89
2019-02-24T07:56:58.933Z,34.49
2019-02-24T07:59:27.392Z,31.94
2019-02-24T08:01:56.164Z,32.78
2019-02-24T08:04:24.682Z,33.97
2019-02-24T08:06:53.133Z,32.45
2019-02-24T08:09:21.540Z,30.05
2019-02-24T08:11:49.876Z,33.31
2019-02-24T08:14:18.246Z,33.50
2019-02-24T08:16:46.560Z,31.45
2019-02-24T08:19:14.966Z,31.65
2019-02-24T08:21:43.289Z,33.91
2019-02-24T08:24:11.638Z,33.82
2019-02-24T08:26:40.007Z,33.66
2019-02-24T08:29:08.555Z,33.15
2019-02-24T08:31:36.930Z,33.73
2019-02-24T08:34:05.253Z,33.87
2019-02-24T08:36:33.580Z,33.92
2019-02-24T08:39:01.921Z,35.82
2019-02-24T08:41:30.355Z,32.99
2019-02-24T08:43:58.713Z,32.94
2019-02-24T08:46:27.165Z,31.95
2019-02-24T08:48:55.496Z,35.89
2019-02-24T08:51:23.989Z,31.57
2019-02-24T08:53:52.339Z,36.52
2019-02-24T08:56:20.695Z,35.59
2019-02-24T08:58:49.047Z,34.76
2019-02-24T09:01:17.369Z,28.27
2019-02-24T09:03:46.356Z,31.70
2019-02-24T09:06:14.684Z,31.80
2019-02-24T09:08:43.017Z,32.12
2019-02-24T09:11:11.468Z,31.95
2019-02-24T09:13:39.817Z,33.62
2019-02-24T09:16:08.808Z,33.58
2019-02-24T09:18:37.251Z,33.62
2019-02-24T09:21:05.679Z,32.38
2019-02-24T09:23:34.010Z,32.81
2019-02-24T09:26:02.365Z,32.27
2019-02-24T09:28:30.773Z,33.05
2019-02-24T09:31:01.066Z,34.81
2019-02-24T09:33:29.476Z,33.45
2019-02-24T09:35:57.798Z,32.56
2019-02-24T09:38:26.154Z,33.09
2019-02-24T09:40:54.477Z,33.35
2019-02-24T09:43:22.830Z,34.14
2019-02-24T09:45:51.233Z,33.27
2019-02-24T09:48:19.540Z,33.82
2019-02-24T09:50:47.877Z,31.98
2019-02-24T09:53:16.250Z,32.71
2019-02-24T09:55:44.572Z,31.78
2019-02-24T09:58:12.965Z,31.62
2019-02-24T10:00:41.280Z,30.19
2019-02-24T10:03:09.986Z,30.53
2019-02-24T10:05:38.997Z,32.96
2019-02-24T10:08:08.228Z,32.33
2019-02-24T10:10:36.662Z,31.08
2019-02-24T10:13:05.100Z,31.15
2019-02-24T10:15:33.403Z,30.63
2019-02-24T10:18:01.762Z,32.00
2019-02-24T10:20:30.096Z,31.78
2019-02-24T10:22:58.416Z,31.64
2019-02-24T10:25:26.745Z,31.79
2019-02-24T10:27:55.096Z,32.39
2019-02-24T10:30:23.420Z,32.10
2019-02-24T10:32:51.819Z,32.35
2019-02-24T10:35:20.163Z,32.83
2019-02-24T10:37:48.517Z,32.78
2019-02-24T10:40:16.857Z,32.37
2019-02-24T10:42:45.233Z,31.58
2019-02-24T10:45:15.958Z,31.91
2019-02-24T10:47:44.440Z,31.78
2019-02-24T10:50:15.244Z,31.99
2019-02-24T10:52:43.697Z,32.13
2019-02-24T10:55:12.577Z,31.98
2019-02-24T10:57:40.977Z,31.33
2019-02-24T11:00:12.640Z,31.54
2019-02-24T11:02:41.172Z,30.48
2019-02-24T11:05:10.118Z,31.71
2019-02-24T11:07:38.435Z,30.55
2019-02-24T11:10:09.576Z,31.98
2019-02-24T11:12:37.949Z,32.00
2019-02-24T11:15:09.971Z,31.22
2019-02-24T11:17:38.344Z,29.21
2019-02-24T11:20:12.096Z,30.24
2019-02-24T11:22:40.417Z,30.45
2019-02-24T11:25:10.790Z,30.87
2019-02-24T11:27:39.159Z,30.93
2019-02-24T11:30:13.825Z,29.51
2019-02-24T11:32:42.124Z,29.17
2019-02-24T11:35:12.010Z,29.53
2019-02-24T11:37:40.492Z,29.46
2019-02-24T11:40:12.722Z,29.33
2019-02-24T11:42:41.123Z,28.54
2019-02-24T11:45:10.499Z,28.97
2019-02-24T11:47:38.911Z,29.32
2019-02-24T11:50:09.902Z,29.05
2019-02-24T11:52:38.292Z,28.70
2019-02-24T11:55:08.562Z,28.48
2019-02-24T11:57:37.046Z,28.38
2019-02-24T12:00:11.384Z,28.62
2019-02-24T12:02:41.738Z,28.50
2019-02-24T12:05:12.266Z,28.42
2019-02-24T12:07:40.603Z,28.94
2019-02-24T12:10:11.641Z,27.64
2019-02-24T12:12:40.064Z,28.22
2019-02-24T12:15:11.198Z,28.06
2019-02-24T12:17:39.574Z,27.90
2019-02-24T12:20:11.091Z,28.19
2019-02-24T12:22:39.554Z,28.19
2019-02-24T12:25:09.368Z,27.92
2019-02-24T12:27:37.679Z,27.82
2019-02-24T12:30:09.778Z,27.40
2019-02-24T12:32:38.157Z,27.22
2019-02-24T12:35:07.174Z,27.52
2019-02-24T12:37:35.511Z,27.57
2019-02-24T12:40:05.024Z,27.62
2019-02-24T12:42:33.358Z,27.91
2019-02-24T12:45:01.707Z,27.03
2019-02-24T12:47:30.054Z,28.08
2019-02-24T12:50:03.109Z,27.98
2019-02-24T12:52:28.762Z,27.70
2019-02-24T12:54:57.097Z,27.98
2019-02-24T12:57:25.441Z,27.64
2019-02-24T12:59:53.768Z,27.74
2019-02-24T13:02:22.253Z,27.23
2019-02-24T13:04:50.623Z,26.88
2019-02-24T13:07:18.968Z,27.12
2019-02-24T13:09:47.315Z,26.74
2019-02-24T13:12:15.667Z,26.90
2019-02-24T13:14:44.780Z,26.85
2019-02-24T13:17:13.109Z,26.88
2019-02-24T13:19:41.446Z,27.09
2019-02-24T13:22:10.119Z,27.10
2019-02-24T13:24:38.462Z,27.12
2019-02-24T13:27:06.990Z,26.78
2019-02-24T13:29:35.382Z,26.19
2019-02-24T13:32:04.884Z,25.70
2019-02-24T13:34:33.249Z,26.25
2019-02-24T13:37:01.616Z,25.65
2019-02-24T13:39:30.213Z,26.37
2019-02-24T13:41:58.988Z,26.28
2019-02-24T13:44:27.308Z,25.83
2019-02-24T13:46:55.634Z,25.61
2019-02-24T13:49:24.730Z,25.40
2019-02-24T13:51:53.074Z,25.48
2019-02-24T13:54:21.421Z,26.20
2019-02-24T13:56:49.761Z,26.40
2019-02-24T13:59:18.106Z,26.56
2019-02-24T14:01:46.416Z,25.73
2019-02-24T14:04:14.789Z,26.21
2019-02-24T14:06:43.122Z,26.08
2019-02-24T14:09:11.584Z,26.20
2019-02-24T14:11:39.943Z,25.44
2019-02-24T14:14:09.918Z,26.10
2019-02-24T14:16:38.338Z,25.26
2019-02-24T14:19:06.967Z,25.63
2019-02-24T14:21:35.289Z,26.48
2019-02-24T14:24:03.837Z,25.83
2019-02-24T14:26:32.170Z,26.02
2019-02-24T14:29:00.465Z,25.82
2019-02-24T14:31:28.800Z,25.97
2019-02-24T14:33:57.128Z,25.62
2019-02-24T14:36:25.496Z,25.97
2019-02-24T14:38:53.866Z,26.36
2019-02-24T14:41:22.233Z,26.74
2019-02-24T14:43:50.635Z,26.44
2019-02-24T14:46:19.040Z,25.73
2019-02-24T14:48:47.574Z,25.72
2019-02-24T14:51:15.934Z,25.54
2019-02-24T14:53:44.284Z,26.20
2019-02-24T14:56:12.616Z,25.49
2019-02-24T14:58:40.993Z,26.01
2019-02-24T15:01:10.316Z,25.68
2019-02-24T15:03:38.658Z,25.20
2019-02-24T15:06:07.402Z,25.64
2019-02-24T15:08:35.755Z,26.15
2019-02-24T15:11:04.101Z,26.00
2019-02-24T15:13:32.566Z,26.02
2019-02-24T15:16:00.913Z,25.43
2019-02-24T15:18:29.267Z,25.42
2019-02-24T15:20:57.786Z,25.74
2019-02-24T15:23:26.190Z,26.26
2019-02-24T15:25:55.261Z,26.73
2019-02-24T15:28:23.676Z,26.26
2019-02-24T15:30:52.032Z,26.48
2019-02-24T15:33:20.385Z,26.48
2019-02-24T15:35:48.716Z,26.55
2019-02-24T15:38:19.037Z,26.57
2019-02-24T15:40:47.549Z,26.86
2019-02-24T15:43:16.375Z,27.01
2019-02-24T15:45:44.860Z,27.03
2019-02-24T15:48:13.954Z,27.54
2019-02-24T15:50:42.305Z,27.67
2019-02-24T15:53:10.674Z,27.79
2019-02-24T15:55:39.017Z,27.18
2019-02-24T15:58:07.617Z,27.63
2019-02-24T16:00:36.037Z,26.98
2019-02-24T16:03:04.442Z,27.99
2019-02-24T16:05:32.842Z,28.37
2019-02-24T16:08:01.382Z,28.19
2019-02-24T16:10:32.564Z,28.12
2019-02-24T16:13:01.816Z,28.18
2019-02-24T16:15:30.437Z,28.26
2019-02-24T16:17:58.835Z,27.55
2019-02-24T16:20:31.842Z,27.21
2019-02-24T16:23:00.165Z,28.84
2019-02-24T16:25:28.518Z,28.46
2019-02-24T16:27:57.029Z,28.34
2019-02-24T16:30:25.383Z,28.08
2019-02-24T16:32:54.439Z,28.67
2019-02-24T16:35:22.758Z,29.47
2019-02-24T16:37:51.386Z,29.26
2019-02-24T16:40:22.097Z,29.75
2019-02-24T16:42:50.447Z,29.97
2019-02-24T16:45:18.788Z,29.30
2019-02-24T16:47:47.178Z,29.55
2019-02-24T16:50:16.972Z,30.03
2019-02-24T16:52:45.329Z,30.01
2019-02-24T16:55:14.997Z,30.29
2019-02-24T16:57:43.397Z,31.42
2019-02-24T17:00:15.307Z,31.39
2019-02-24T17:02:43.633Z,31.65
2019-02-24T17:05:12.092Z,31.64
2019-02-24T17:07:40.538Z,31.58
2019-02-24T17:10:11.028Z,32.04
2019-02-24T17:12:39.418Z,31.99
2019-02-24T17:15:11.117Z,32.94
2019-02-24T17:17:39.505Z,32.98
2019-02-24T17:20:10.264Z,33.38
2019-02-24T17:22:38.699Z,34.07
2019-02-24T17:25:09.378Z,34.29
2019-02-24T17:27:37.688Z,34.31
2019-02-24T17:30:08.095Z,34.64
2019-02-24T17:32:36.647Z,34.50
2019-02-24T17:35:06.037Z,35.16
2019-02-24T17:37:34.449Z,34.51
2019-02-24T17:40:03.058Z,34.16
2019-02-24T17:42:31.757Z,34.14
2019-02-24T17:45:00.283Z,34.25
2019-02-24T17:47:28.679Z,34.02
2019-02-24T17:49:57.058Z,34.62
2019-02-24T17:52:25.388Z,34.71
2019-02-24T17:54:53.756Z,33.92
2019-02-24T17:57:22.242Z,34.72
2019-02-24T17:59:50.566Z,33.42
2019-02-24T18:02:18.949Z,33.36
2019-02-24T18:04:47.386Z,32.74
2019-02-24T18:07:15.718Z,33.72
2019-02-24T18:09:44.064Z,32.86
2019-02-24T18:12:13.186Z,33.27
2019-02-24T18:14:41.541Z,32.31
2019-02-24T18:17:10.501Z,33.17
2019-02-24T18:19:38.873Z,33.30
2019-02-24T18:22:07.225Z,33.19
2019-02-24T18:24:35.676Z,33.06
2019-02-24T18:27:04.211Z,32.66
2019-02-24T18:29:32.579Z,32.72
2019-02-24T18:32:00.963Z,32.88
2019-02-24T18:34:29.348Z,32.64
2019-02-24T18:36:57.761Z,32.90
2019-02-24T18:39:26.106Z,33.65
2019-02-24T18:41:54.436Z,33.07
2019-02-24T18:44:22.806Z,33.95
2019-02-24T18:46:51.150Z,34.56
2019-02-24T18:49:19.568Z,34.71
2019-02-24T18:51:47.920Z,35.13
2019-02-24T18:54:16.758Z,34.49
2019-02-24T18:56:45.153Z,34.71
2019-02-24T18:59:13.827Z,35.25
2019-02-24T19:01:42.236Z,34.98
2019-02-24T19:04:11.336Z,35.57
2019-02-24T19:06:39.667Z,35.82
2019-02-24T19:09:08.422Z,36.03
2019-02-24T19:11:36.810Z,38.12
2019-02-24T19:14:05.285Z,36.82
2019-02-24T19:16:33.584Z,36.45
2019-02-24T19:19:01.946Z,36.53
2019-02-24T19:21:30.317Z,36.90
2019-02-24T19:23:58.708Z,37.17
2019-02-24T19:26:27.106Z,37.85
2019-02-24T19:28:55.505Z,37.73
2019-02-24T19:31:23.900Z,38.48
2019-02-24T19:33:52.798Z,38.43
2019-02-24T19:36:21.132Z,38.28
2019-02-24T19:38:49.573Z,38.72
2019-02-24T19:41:17.916Z,38.40
2019-02-24T19:43:46.232Z,38.82
2019-02-24T19:46:14.643Z,38.83
2019-02-24T19:48:43.056Z,38.95
2019-02-24T19:51:12.159Z,38.82
2019-02-24T19:53:40.485Z,39.06
2019-02-24T19:56:09.000Z,39.12
2019-02-24T19:58:42.177Z,39.73
2019-02-24T20:01:14.161Z,40.07
2019-02-24T20:03:46.264Z,39.76
2019-02-24T20:06:14.670Z,40.30
2019-02-24T20:08:43.006Z,39.57
2019-02-24T20:11:11.834Z,39.42
2019-02-24T20:13:40.176Z,39.43
2019-02-24T20:16:08.537Z,40.52
2019-02-24T20:18:36.845Z,39.88
2019-02-24T20:21:07.929Z,40.54
2019-02-24T20:23:36.456Z,39.75
2019-02-24T20:26:04.811Z,39.98
2019-02-24T20:28:33.120Z,39.41
2019-02-24T20:31:01.525Z,38.35
2019-02-24T20:33:31.030Z,38.55
2019-02-24T20:35:59.378Z,37.88
2019-02-24T20:38:27.764Z,38.09
2019-02-24T20:40:56.211Z,38.48
2019-02-24T20:43:24.516Z,38.42
2019-02-24T20:45:52.868Z,37.98
2019-02-24T20:48:21.222Z,38.73
2019-02-24T20:50:51.237Z,38.90
2019-02-24T20:53:19.882Z,38.90
2019-02-24T20:55:48.191Z,38.69
2019-02-24T20:58:16.588Z,38.83
2019-02-24T21:00:46.685Z,38.08
2019-02-24T21:03:15.069Z,39.47
2019-02-24T21:05:43.462Z,40.56
2019-02-24T21:08:12.458Z,40.02
2019-02-24T21:10:40.850Z,40.05
2019-02-24T21:13:09.542Z,40.92
2019-02-24T21:15:37.926Z,42.40
2019-02-24T21:18:06.394Z,43.61
2019-02-24T21:20:34.876Z,43.29
2019-02-24T21:23:03.335Z,43.88
2019-02-24T21:25:32.011Z,44.03
2019-02-24T21:28:01.405Z,43.22
2019-02-24T21:30:31.711Z,44.15
2019-02-24T21:33:00.174Z,44.50
2019-02-24T21:35:28.542Z,44.65
2019-02-24T21:37:56.971Z,45.71
2019-02-24T21:40:25.361Z,45.70
2019-02-24T21:42:53.900Z,45.43
2019-02-24T21:45:24.608Z,45.28
2019-02-24T21:47:52.944Z,46.07
2019-02-24T21:50:21.999Z,46.83
2019-02-24T21:52:50.353Z,46.64
2019-02-24T21:55:18.760Z,46.76
2019-02-24T21:57:47.138Z,46.83
2019-02-24T22:00:18.791Z,46.63
2019-02-24T22:02:47.204Z,46.14
2019-02-24T22:05:15.959Z,46.67
2019-02-24T22:07:44.564Z,46.23
2019-02-24T22:10:14.587Z,45.84
2019-02-24T22:12:42.932Z,46.90
2019-02-24T22:15:15.677Z,47.20
2019-02-24T22:17:44.110Z,47.32
2019-02-24T22:20:15.027Z,47.11
2019-02-24T22:22:43.443Z,47.28
2019-02-24T22:25:14.139Z,47.30
2019-02-24T22:27:42.688Z,47.14
2019-02-24T22:30:15.345Z,47.40
2019-02-24T22:32:43.746Z,47.46
2019-02-24T22:35:13.026Z,47.43
2019-02-24T22:37:41.346Z,48.37
2019-02-24T22:40:12.692Z,47.51
2019-02-24T22:42:41.242Z,47.77
2019-02-24T22:45:16.442Z,47.60
2019-02-24T22:47:44.899Z,47.62
2019-02-24T22:50:14.694Z,48.22
2019-02-24T22:52:43.388Z,48.56
2019-02-24T22:55:14.240Z,48.36
2019-02-24T22:57:42.597Z,48.13
2019-02-24T23:00:16.375Z,48.94
2019-02-24T23:02:44.982Z,48.93
2019-02-24T23:05:15.344Z,48.63
2019-02-24T23:08:11.655Z,48.88
2019-02-24T23:10:40.037Z,48.53
2019-02-24T23:13:08.390Z,47.81
2019-02-24T23:15:36.874Z,47.71
2019-02-24T23:18:05.346Z,48.02
2019-02-24T23:20:33.688Z,47.90
2019-02-24T23:23:02.052Z,48.57
2019-02-24T23:25:30.447Z,48.36
2019-02-24T23:27:58.768Z,48.57
2019-02-24T23:30:27.082Z,48.98
2019-02-24T23:32:55.462Z,48.40
2019-02-24T23:35:23.862Z,49.12
2019-02-24T23:37:52.284Z,48.63
2019-02-24T23:40:20.688Z,49.31
2019-02-24T23:42:49.047Z,50.17
2019-02-24T23:45:17.566Z,50.23
2019-02-24T23:47:45.959Z,50.19
2019-02-24T23:50:14.578Z,50.35
2019-02-24T23:52:42.930Z,49.51
2019-02-24T23:55:12.569Z,49.47
2019-02-24T23:57:40.897Z,49.44
